Maldives Meteorological Service

METAR

Station
VRMM
METAR VRMM 241200Z 28012KT 9999 FEW018TCU BKN260 30/25 Q1010 NOSIG=
VRMH
METAR VRMH 241200Z 29008KT 9999 FEW017TCU BKN120 30/25 Q1009=
VRMK
METAR VRMK 241200Z 20003KT 9999 FEW018 BKN250 29/24 Q1010=
VRMT
METAR VRMT 241200Z 20003KT 9999 FEW018TCU BKN120 29/24 Q1010=
VRMG
METAR VRMG 241200Z 18005KT 9999 FEW018TCU SCT120 BKN260 30/25 Q1011 TEMPO FEW018CB=
Last Updated : 2019-08-24 17:00:36

SPECI

Station
VRMM
VRMH
VRMK
VRMT
VRMG
Last Updated : 2019-08-24 17:00:36